createdAt,value
2023-03-14T00:02:16.109Z,95.30
2023-03-14T00:04:43.459Z,95.30
2023-03-14T00:07:12.906Z,95.40
2023-03-14T00:09:39.886Z,95.40
2023-03-14T00:12:08.366Z,95.40
2023-03-14T00:14:35.287Z,95.50
2023-03-14T00:17:02.156Z,95.60
2023-03-14T00:19:29.062Z,95.60
2023-03-14T00:21:55.961Z,95.80
2023-03-14T00:24:22.833Z,95.70
2023-03-14T00:26:49.724Z,95.70
2023-03-14T00:29:16.596Z,95.80
2023-03-14T00:31:45.957Z,95.90
2023-03-14T00:34:12.812Z,96.00
2023-03-14T00:36:39.711Z,96.10
2023-03-14T00:39:06.565Z,96.10
2023-03-14T00:41:33.455Z,96.20
2023-03-14T00:44:01.020Z,96.30
2023-03-14T00:46:28.026Z,96.30
2023-03-14T00:48:54.923Z,96.20
2023-03-14T00:51:21.795Z,96.30
2023-03-14T00:53:49.009Z,96.20
2023-03-14T00:56:16.112Z,96.30
2023-03-14T00:58:43.320Z,96.30
2023-03-14T01:01:19.129Z,96.30
2023-03-14T01:03:46.627Z,96.50
2023-03-14T01:06:19.765Z,96.50
2023-03-14T01:08:47.288Z,96.70
2023-03-14T01:11:18.772Z,96.90
2023-03-14T01:13:46.004Z,97.10
2023-03-14T01:16:14.605Z,96.90
2023-03-14T01:18:44.641Z,96.90
2023-03-14T01:21:17.999Z,96.90
2023-03-14T01:23:46.448Z,96.80
2023-03-14T01:26:17.102Z,96.80
2023-03-14T01:28:43.965Z,96.70
2023-03-14T01:31:12.618Z,96.80
2023-03-14T01:33:40.560Z,96.70
2023-03-14T01:36:09.858Z,96.70
2023-03-14T01:38:38.999Z,96.80
2023-03-14T01:41:10.335Z,96.70
2023-03-14T01:43:37.208Z,96.80
2023-03-14T01:46:13.959Z,96.80
2023-03-14T01:48:50.468Z,96.90
2023-03-14T01:51:23.742Z,96.90
2023-03-14T01:53:54.451Z,96.80
2023-03-14T01:56:21.482Z,96.80
2023-03-14T01:58:52.642Z,96.70
2023-03-14T02:01:22.727Z,96.70
2023-03-14T02:04:00.263Z,96.70
2023-03-14T02:06:39.209Z,96.70
2023-03-14T02:09:06.142Z,96.80
2023-03-14T02:11:35.732Z,96.80
2023-03-14T02:14:06.809Z,96.70
2023-03-14T02:16:58.124Z,96.90
2023-03-14T02:20:23.494Z,96.90
2023-03-14T02:22:55.616Z,97.00
2023-03-14T02:25:47.201Z,96.90
2023-03-14T02:28:14.379Z,96.90
2023-03-14T02:30:42.276Z,97.00
2023-03-14T02:33:20.679Z,96.90
2023-03-14T02:36:00.656Z,96.90
2023-03-14T02:38:42.024Z,97.00
2023-03-14T02:41:08.997Z,96.90
2023-03-14T02:43:41.354Z,96.90
2023-03-14T02:46:19.609Z,96.90
2023-03-14T02:48:58.805Z,97.00
2023-03-14T02:51:27.340Z,97.00
2023-03-14T02:53:54.312Z,97.10
2023-03-14T02:56:23.035Z,97.30
2023-03-14T02:58:50.199Z,97.30
2023-03-14T03:01:34.361Z,97.40
2023-03-14T03:04:01.387Z,97.40
2023-03-14T03:06:28.340Z,97.40
2023-03-14T03:08:55.338Z,97.40
2023-03-14T03:11:22.293Z,97.50
2023-03-14T03:13:49.190Z,97.50
2023-03-14T03:16:16.429Z,97.50
2023-03-14T03:18:43.529Z,97.60
2023-03-14T03:21:10.616Z,97.50
2023-03-14T03:23:37.658Z,97.50
2023-03-14T03:26:06.699Z,97.50
2023-03-14T03:28:33.594Z,97.50
2023-03-14T03:31:07.777Z,97.50
2023-03-14T03:33:37.815Z,97.60
2023-03-14T03:36:05.761Z,97.60
2023-03-14T03:38:36.723Z,97.60
2023-03-14T03:41:08.908Z,97.70
2023-03-14T03:43:36.347Z,97.80
2023-03-14T03:46:07.081Z,97.80
2023-03-14T03:48:35.457Z,97.80
2023-03-14T03:51:05.084Z,97.70
2023-03-14T03:53:34.099Z,97.60
2023-03-14T03:56:06.082Z,97.60
2023-03-14T03:58:34.446Z,97.50
2023-03-14T04:01:02.592Z,97.50
2023-03-14T04:03:29.806Z,97.50
2023-03-14T04:06:12.535Z,97.40
2023-03-14T04:08:42.287Z,97.50
2023-03-14T04:11:12.442Z,97.50
2023-03-14T04:13:52.658Z,97.50
2023-03-14T04:16:25.878Z,97.50
2023-03-14T04:18:58.990Z,97.60
2023-03-14T04:21:26.995Z,97.50
2023-03-14T04:23:57.241Z,97.50
2023-03-14T04:26:25.831Z,97.40
2023-03-14T04:28:52.850Z,97.30
2023-03-14T04:31:23.016Z,97.30
2023-03-14T04:33:51.060Z,97.20
2023-03-14T04:36:25.223Z,97.10
2023-03-14T04:38:52.562Z,97.00
2023-03-14T04:41:21.239Z,96.90
2023-03-14T04:43:48.183Z,96.90
2023-03-14T04:46:15.730Z,96.80
2023-03-14T04:48:44.044Z,96.80
2023-03-14T04:51:11.479Z,96.80
2023-03-14T04:53:38.360Z,96.70
2023-03-14T04:56:09.888Z,96.70
2023-03-14T04:58:39.145Z,96.70
2023-03-14T05:01:07.606Z,96.60
2023-03-14T05:03:34.475Z,96.50
2023-03-14T05:06:16.854Z,96.50
2023-03-14T05:08:43.723Z,96.40
2023-03-14T05:11:23.706Z,96.40
2023-03-14T05:14:01.909Z,96.50
2023-03-14T05:16:55.200Z,96.40
2023-03-14T05:19:37.578Z,96.40
2023-03-14T05:22:22.918Z,96.40
2023-03-14T05:25:08.109Z,96.40
2023-03-14T05:27:57.868Z,96.50
2023-03-14T05:30:48.292Z,96.50
2023-03-14T05:33:26.090Z,96.50
2023-03-14T05:36:28.274Z,96.50
2023-03-14T05:39:03.847Z,96.50
2023-03-14T05:41:49.341Z,96.50
2023-03-14T05:44:42.412Z,96.50
2023-03-14T05:47:15.806Z,96.50
2023-03-14T05:50:07.753Z,96.40
2023-03-14T05:52:54.932Z,96.40
2023-03-14T05:55:42.128Z,96.30
2023-03-14T05:58:16.762Z,96.30
2023-03-14T06:01:06.871Z,96.20
2023-03-14T06:03:45.239Z,96.20
2023-03-14T06:06:12.476Z,96.10
2023-03-14T06:08:39.472Z,96.00
2023-03-14T06:11:07.417Z,96.00
2023-03-14T06:13:34.343Z,96.00
2023-03-14T06:16:01.375Z,95.90
2023-03-14T06:18:28.285Z,95.90
2023-03-14T06:20:57.330Z,95.90
2023-03-14T06:23:27.005Z,95.80
2023-03-14T06:25:54.770Z,95.70
2023-03-14T06:28:25.922Z,95.70
2023-03-14T06:30:53.881Z,95.60
2023-03-14T06:33:20.860Z,95.60
2023-03-14T06:35:48.508Z,95.60
2023-03-14T06:38:15.520Z,95.60
2023-03-14T06:40:43.003Z,95.60
2023-03-14T06:43:16.369Z,95.60
2023-03-14T06:45:45.693Z,95.50
2023-03-14T06:48:12.742Z,95.50
2023-03-14T06:50:46.475Z,95.50
2023-03-14T06:53:14.014Z,95.50
2023-03-14T06:55:44.273Z,95.40
2023-03-14T06:58:11.621Z,95.40
2023-03-14T07:00:42.785Z,95.10
2023-03-14T07:03:16.301Z,95.00
2023-03-14T07:05:46.681Z,94.90
2023-03-14T07:08:13.708Z,94.80
2023-03-14T07:10:40.556Z,94.70
2023-03-14T07:13:08.730Z,94.80
2023-03-14T07:15:43.901Z,94.70
2023-03-14T07:18:11.211Z,94.80
2023-03-14T07:20:38.081Z,94.50
2023-03-14T07:23:06.347Z,94.60
2023-03-14T07:25:51.694Z,94.20
2023-03-14T07:28:20.494Z,94.20
2023-03-14T07:30:49.306Z,94.40
2023-03-14T07:33:24.272Z,93.90
2023-03-14T07:35:51.733Z,93.70
2023-03-14T07:38:21.474Z,94.10
2023-03-14T07:41:09.963Z,93.90
2023-03-14T07:43:42.394Z,93.90
2023-03-14T07:46:09.556Z,93.80
2023-03-14T07:48:36.531Z,93.60
2023-03-14T07:51:03.480Z,93.60
2023-03-14T07:53:30.384Z,93.20
2023-03-14T07:55:57.341Z,93.10
2023-03-14T07:58:24.260Z,92.60
2023-03-14T08:00:52.947Z,92.60
2023-03-14T08:03:20.473Z,92.70
2023-03-14T08:05:51.733Z,92.70
2023-03-14T08:08:19.153Z,92.50
2023-03-14T08:10:47.266Z,92.30
2023-03-14T08:13:14.681Z,91.80
2023-03-14T08:15:41.836Z,91.40
2023-03-14T08:18:08.731Z,91.90
2023-03-14T08:20:36.975Z,91.80
2023-03-14T08:23:04.128Z,91.30
2023-03-14T08:33:12.395Z,90.80
2023-03-14T08:35:39.635Z,90.50
2023-03-14T08:38:06.513Z,90.50
2023-03-14T08:40:33.370Z,90.30
2023-03-14T08:43:00.225Z,89.70
2023-03-14T08:45:27.067Z,89.70
2023-03-14T08:47:53.986Z,89.90
2023-03-14T08:50:20.925Z,89.50
2023-03-14T08:52:47.804Z,89.30
2023-03-14T08:55:15.232Z,88.40
2023-03-14T08:57:42.286Z,87.80
2023-03-14T09:00:13.339Z,87.20
2023-03-14T09:02:40.232Z,87.70
2023-03-14T09:05:08.464Z,87.00
2023-03-14T09:07:35.353Z,87.00
2023-03-14T09:10:02.281Z,87.00
2023-03-14T09:12:29.171Z,87.40
2023-03-14T09:14:56.184Z,86.40
2023-03-14T09:17:23.459Z,87.10
2023-03-14T09:19:50.329Z,84.90
2023-03-14T09:22:17.249Z,85.70
2023-03-14T09:24:44.140Z,85.50
2023-03-14T09:27:11.079Z,85.40
2023-03-14T09:29:37.954Z,84.80
2023-03-14T09:32:04.976Z,85.70
2023-03-14T09:34:31.964Z,85.40
2023-03-14T09:36:58.868Z,85.00
2023-03-14T09:39:25.838Z,84.70
2023-03-14T09:41:55.890Z,83.90
2023-03-14T09:44:29.069Z,84.40
2023-03-14T09:47:01.660Z,85.00
2023-03-14T09:49:37.858Z,84.20
2023-03-14T09:52:26.248Z,84.50
2023-03-14T09:55:01.101Z,84.40
2023-03-14T09:57:28.765Z,84.30
2023-03-14T10:00:14.000Z,83.90
2023-03-14T10:02:43.234Z,83.60
2023-03-14T10:05:18.908Z,83.70
2023-03-14T10:07:45.971Z,83.70
2023-03-14T10:10:25.245Z,83.20
2023-03-14T10:13:18.868Z,83.80
2023-03-14T10:16:08.783Z,83.60
2023-03-14T10:18:35.776Z,84.30
2023-03-14T10:21:29.004Z,84.10
2023-03-14T10:23:55.886Z,84.30
2023-03-14T10:26:28.886Z,84.10
2023-03-14T10:29:09.941Z,83.90
2023-03-14T10:32:06.156Z,83.80
2023-03-14T10:34:37.677Z,82.90
2023-03-14T10:37:26.876Z,83.50
2023-03-14T10:39:56.603Z,83.40
2023-03-14T10:42:35.006Z,83.60
2023-03-14T10:45:27.255Z,80.90
2023-03-14T10:47:54.153Z,80.40
2023-03-14T10:50:31.746Z,80.40
2023-03-14T10:53:06.303Z,81.00
2023-03-14T10:55:43.975Z,81.50
2023-03-14T10:58:33.744Z,80.10
2023-03-14T11:01:38.708Z,79.60
2023-03-14T11:04:47.828Z,78.00
2023-03-14T11:07:28.742Z,78.70
2023-03-14T11:10:20.620Z,78.30
2023-03-14T11:13:07.838Z,78.70
2023-03-14T11:16:03.482Z,78.40
2023-03-14T11:18:54.641Z,78.00
2023-03-14T11:22:09.370Z,77.60
2023-03-14T11:25:03.498Z,76.40
2023-03-14T11:27:44.680Z,76.90
2023-03-14T11:30:21.862Z,77.80
2023-03-14T11:33:09.073Z,78.60
2023-03-14T11:35:54.797Z,78.00
2023-03-14T11:38:35.507Z,78.70
2023-03-14T11:41:02.714Z,81.10
2023-03-14T11:43:39.140Z,82.30
2023-03-14T11:46:24.497Z,83.10
2023-03-14T11:49:22.327Z,83.10
2023-03-14T11:51:53.575Z,83.20
2023-03-14T11:54:47.950Z,83.10
2023-03-14T11:57:21.334Z,83.10
2023-03-14T12:00:04.000Z,83.20
2023-03-14T12:03:09.391Z,82.80
2023-03-14T12:06:04.004Z,82.10
2023-03-14T12:08:55.462Z,80.20
2023-03-14T12:11:37.128Z,79.30
2023-03-14T12:14:04.710Z,80.30
2023-03-14T12:16:38.511Z,79.80
2023-03-14T12:19:22.206Z,78.70
2023-03-14T12:21:59.216Z,78.40
2023-03-14T12:24:32.860Z,78.60
2023-03-14T12:27:02.765Z,79.10
2023-03-14T12:29:31.147Z,79.80
2023-03-14T12:32:28.429Z,80.10
2023-03-14T12:34:55.467Z,79.80
2023-03-14T12:37:37.812Z,79.90
2023-03-14T12:40:31.340Z,80.40
2023-03-14T12:43:05.132Z,80.00
2023-03-14T12:45:36.783Z,79.50
2023-03-14T12:48:28.217Z,78.50
2023-03-14T12:51:01.892Z,79.30
2023-03-14T12:54:02.305Z,79.50
2023-03-14T12:56:59.174Z,79.40
2023-03-14T12:59:48.109Z,80.10
2023-03-14T13:02:41.422Z,79.50
2023-03-14T13:05:26.118Z,80.00
2023-03-14T13:07:56.248Z,80.60
2023-03-14T13:10:40.298Z,80.70
2023-03-14T13:13:22.766Z,80.70
2023-03-14T13:15:58.772Z,81.20
2023-03-14T13:18:29.831Z,81.20
2023-03-14T13:21:22.398Z,81.40
2023-03-14T13:23:57.481Z,81.30
2023-03-14T13:26:35.051Z,80.90
2023-03-14T13:29:27.182Z,80.60
2023-03-14T13:32:01.461Z,79.10
2023-03-14T13:34:33.952Z,77.80
2023-03-14T13:37:01.620Z,76.70
2023-03-14T13:39:30.393Z,77.40
2023-03-14T13:42:02.352Z,79.20
2023-03-14T13:44:37.397Z,81.30
2023-03-14T13:47:11.364Z,82.80
2023-03-14T13:49:39.174Z,83.50
2023-03-14T13:52:39.465Z,84.50
2023-03-14T13:55:16.090Z,84.80
2023-03-14T13:57:49.335Z,85.50
2023-03-14T14:00:28.144Z,86.20
2023-03-14T14:02:57.327Z,88.00
2023-03-14T14:05:28.527Z,87.80
2023-03-14T14:07:55.863Z,88.50
2023-03-14T14:10:23.202Z,89.20
2023-03-14T14:12:58.537Z,90.10
2023-03-14T14:15:30.218Z,90.40
2023-03-14T14:18:07.014Z,89.70
2023-03-14T14:20:38.158Z,90.30
2023-03-14T14:23:08.810Z,90.20
2023-03-14T14:25:35.889Z,90.30
2023-03-14T14:28:33.345Z,90.10
2023-03-14T14:31:25.152Z,90.40
2023-03-14T14:34:02.854Z,90.60
2023-03-14T14:36:40.506Z,90.00
2023-03-14T14:39:19.690Z,88.70
2023-03-14T14:41:50.874Z,88.10
2023-03-14T14:44:29.220Z,88.00
2023-03-14T14:46:57.478Z,88.50
2023-03-14T14:49:33.313Z,89.20
2023-03-14T14:52:21.557Z,89.90
2023-03-14T14:54:59.591Z,90.10
2023-03-14T14:57:34.929Z,90.60
2023-03-14T15:00:20.290Z,90.90
2023-03-14T15:02:50.318Z,91.20
2023-03-14T15:05:27.745Z,91.70
2023-03-14T15:07:55.218Z,92.30
2023-03-14T15:10:25.556Z,92.30
2023-03-14T15:12:53.106Z,92.40
2023-03-14T15:15:20.150Z,92.50
2023-03-14T15:17:47.029Z,92.60
2023-03-14T15:20:17.538Z,93.00
2023-03-14T15:22:44.998Z,93.00
2023-03-14T15:25:31.584Z,93.20
2023-03-14T15:27:59.426Z,93.10
2023-03-14T15:30:26.298Z,93.20
2023-03-14T15:32:53.308Z,93.40
2023-03-14T15:35:20.302Z,93.50
2023-03-14T15:37:47.391Z,93.60
2023-03-14T15:40:15.320Z,93.60
2023-03-14T15:42:42.817Z,93.80
2023-03-14T15:45:10.362Z,93.80
2023-03-14T15:47:37.282Z,94.10
2023-03-14T15:50:05.399Z,94.00
2023-03-14T15:52:32.303Z,94.00
2023-03-14T15:54:59.207Z,93.90
2023-03-14T15:57:26.092Z,94.10
2023-03-14T15:59:53.228Z,94.30
2023-03-14T16:02:20.089Z,94.40
2023-03-14T16:04:47.129Z,94.50
2023-03-14T16:07:14.081Z,94.70
2023-03-14T16:09:40.969Z,94.70
2023-03-14T16:12:09.705Z,94.70
2023-03-14T16:14:36.648Z,94.70
2023-03-14T16:17:03.564Z,94.90
2023-03-14T16:19:32.010Z,94.90
2023-03-14T16:21:58.952Z,94.90
2023-03-14T16:24:25.853Z,94.70
2023-03-14T16:26:52.739Z,94.90
2023-03-14T16:29:19.640Z,94.90
2023-03-14T16:31:47.367Z,94.80
2023-03-14T16:34:15.061Z,94.90
2023-03-14T16:36:41.938Z,95.00
2023-03-14T16:39:08.809Z,95.20
2023-03-14T16:41:35.689Z,95.10
2023-03-14T16:44:02.964Z,95.00
2023-03-14T16:46:30.780Z,95.10
2023-03-14T16:48:57.929Z,95.20
2023-03-14T16:51:25.196Z,95.20
2023-03-14T16:53:52.162Z,95.30
2023-03-14T16:56:19.093Z,95.30
2023-03-14T16:58:47.746Z,95.20
2023-03-14T17:01:18.228Z,95.30
2023-03-14T17:03:50.497Z,95.30
2023-03-14T17:06:27.406Z,95.40
2023-03-14T17:08:55.981Z,95.30
2023-03-14T17:11:24.709Z,95.20
2023-03-14T17:13:51.770Z,95.20
2023-03-14T17:16:19.630Z,95.20
2023-03-14T17:18:46.809Z,95.10
2023-03-14T17:21:13.704Z,94.90
2023-03-14T17:23:41.089Z,94.70
2023-03-14T17:26:08.094Z,94.30
2023-03-14T17:28:35.386Z,94.10
2023-03-14T17:31:17.560Z,93.50
2023-03-14T17:33:45.176Z,93.30
2023-03-14T17:36:15.640Z,92.90
2023-03-14T17:38:42.692Z,92.70
2023-03-14T17:41:14.859Z,92.40
2023-03-14T17:43:42.761Z,91.90
2023-03-14T17:46:14.735Z,91.80
2023-03-14T17:48:43.257Z,91.60
2023-03-14T17:51:10.466Z,91.40
2023-03-14T17:53:38.495Z,91.20
2023-03-14T17:56:05.796Z,91.20
2023-03-14T17:58:37.782Z,91.20
2023-03-14T18:01:18.883Z,90.50
2023-03-14T18:03:46.086Z,90.70
2023-03-14T18:06:16.046Z,90.20
2023-03-14T18:08:43.913Z,90.40
2023-03-14T18:11:12.348Z,90.10
2023-03-14T18:13:40.404Z,90.20
2023-03-14T18:16:09.166Z,90.10
2023-03-14T18:18:36.151Z,90.20
2023-03-14T18:21:03.101Z,90.20
2023-03-14T18:23:29.975Z,90.00
2023-03-14T18:26:00.144Z,89.60
2023-03-14T18:28:28.966Z,89.30
2023-03-14T18:31:19.027Z,89.00
2023-03-14T18:33:47.815Z,88.80
2023-03-14T18:36:15.273Z,88.90
2023-03-14T18:38:46.721Z,88.30
2023-03-14T18:41:16.809Z,88.70
2023-03-14T18:43:43.930Z,88.60
2023-03-14T18:46:11.978Z,88.00
2023-03-14T18:48:42.361Z,88.20
2023-03-14T18:51:12.732Z,88.50
2023-03-14T18:53:39.859Z,88.70
2023-03-14T18:56:07.258Z,88.50
2023-03-14T18:58:34.497Z,88.80
2023-03-14T19:01:03.462Z,88.90
2023-03-14T19:03:32.099Z,88.90
2023-03-14T19:05:59.722Z,89.20
2023-03-14T19:08:28.218Z,89.30
2023-03-14T19:10:59.020Z,89.50
2023-03-14T19:13:27.480Z,89.70
2023-03-14T19:15:54.413Z,90.00
2023-03-14T19:18:21.417Z,90.00
2023-03-14T19:20:58.772Z,90.10
2023-03-14T19:23:26.701Z,90.20
2023-03-14T19:25:54.520Z,90.40
2023-03-14T19:28:21.753Z,90.60
2023-03-14T19:30:49.486Z,90.60
2023-03-14T19:33:18.311Z,90.70
2023-03-14T19:35:45.980Z,90.80
2023-03-14T19:38:14.218Z,90.80
2023-03-14T19:40:44.880Z,90.80
2023-03-14T19:43:11.846Z,90.60
2023-03-14T19:45:39.021Z,90.40
2023-03-14T19:48:07.222Z,90.40
2023-03-14T19:50:34.556Z,90.30
2023-03-14T19:53:03.537Z,90.10
2023-03-14T19:55:35.179Z,89.80
2023-03-14T19:58:02.337Z,88.60
2023-03-14T20:00:29.508Z,87.90
2023-03-14T20:02:56.586Z,86.10
2023-03-14T20:05:24.403Z,86.10
2023-03-14T20:07:51.722Z,86.30
2023-03-14T20:10:22.938Z,85.70
2023-03-14T20:12:51.086Z,85.80
2023-03-14T20:15:20.256Z,85.80
2023-03-14T20:17:48.947Z,85.90
2023-03-14T20:20:17.149Z,85.90
2023-03-14T20:22:44.680Z,85.50
2023-03-14T20:25:14.946Z,85.70
2023-03-14T20:27:42.615Z,85.70
2023-03-14T20:30:13.922Z,85.90
2023-03-14T20:32:41.634Z,85.80
2023-03-14T20:35:11.528Z,86.10
2023-03-14T20:37:39.846Z,86.20
2023-03-14T20:40:09.248Z,86.30
2023-03-14T20:42:36.136Z,86.50
2023-03-14T20:45:03.134Z,86.60
2023-03-14T20:47:29.997Z,86.40
2023-03-14T20:49:56.872Z,86.90
2023-03-14T20:52:23.771Z,87.20
2023-03-14T20:54:50.642Z,87.30
2023-03-14T20:57:17.673Z,87.60
2023-03-14T20:59:44.586Z,87.50
2023-03-14T21:02:11.880Z,87.60
2023-03-14T21:04:38.980Z,87.80
2023-03-14T21:07:05.962Z,87.80
2023-03-14T21:09:33.494Z,87.90
2023-03-14T21:12:00.410Z,88.10
2023-03-14T21:14:27.304Z,88.20
2023-03-14T21:16:56.969Z,88.30
2023-03-14T21:19:30.952Z,88.20
2023-03-14T21:22:04.039Z,88.30
2023-03-14T21:24:31.816Z,88.20
2023-03-14T21:26:58.843Z,88.30
2023-03-14T21:29:25.745Z,88.00
2023-03-14T21:31:52.848Z,87.90
2023-03-14T21:34:21.069Z,88.10
2023-03-14T21:36:49.044Z,88.20
2023-03-14T21:39:16.344Z,88.20
2023-03-14T21:41:43.231Z,88.10
2023-03-14T21:44:11.300Z,88.10
2023-03-14T21:46:38.277Z,88.40
2023-03-14T21:49:05.157Z,88.50
2023-03-14T21:51:35.661Z,88.50
2023-03-14T21:54:09.878Z,88.50
2023-03-14T21:56:37.797Z,88.50
2023-03-14T21:59:05.276Z,88.70
2023-03-14T22:01:32.834Z,88.70
2023-03-14T22:03:59.953Z,88.80
2023-03-14T22:06:28.125Z,89.00
2023-03-14T22:08:55.352Z,89.00
2023-03-14T22:11:23.964Z,88.90
2023-03-14T22:13:50.831Z,89.00
2023-03-14T22:16:17.725Z,89.00
2023-03-14T22:18:45.469Z,89.10
2023-03-14T22:21:12.370Z,89.40
2023-03-14T22:23:39.264Z,89.40
2023-03-14T22:26:06.114Z,89.80
2023-03-14T22:28:33.054Z,89.80
2023-03-14T22:31:02.903Z,90.00
2023-03-14T22:33:31.285Z,90.00
2023-03-14T22:35:58.368Z,90.10
2023-03-14T22:38:25.680Z,90.10
2023-03-14T22:40:52.622Z,90.20
2023-03-14T22:43:19.650Z,90.20
2023-03-14T22:45:47.201Z,90.30
2023-03-14T22:48:15.213Z,90.30
2023-03-14T22:50:42.242Z,90.30
2023-03-14T22:53:09.136Z,90.40
2023-03-14T22:55:36.024Z,90.50
2023-03-14T22:58:03.444Z,90.60
2023-03-14T23:00:31.786Z,90.60
2023-03-14T23:02:58.734Z,90.70
2023-03-14T23:05:26.138Z,90.80
2023-03-14T23:07:53.931Z,90.90
2023-03-14T23:10:20.880Z,91.00
2023-03-14T23:12:47.905Z,91.00
2023-03-14T23:15:16.126Z,91.10
2023-03-14T23:17:44.487Z,91.10
2023-03-14T23:20:13.186Z,91.20
2023-03-14T23:22:40.368Z,91.20
2023-03-14T23:25:08.964Z,91.20
2023-03-14T23:27:36.464Z,91.30
2023-03-14T23:30:04.765Z,91.40
2023-03-14T23:32:32.058Z,91.50
2023-03-14T23:34:58.958Z,91.50
2023-03-14T23:37:26.001Z,91.60
2023-03-14T23:39:53.093Z,91.60
2023-03-14T23:42:20.033Z,91.60
2023-03-14T23:44:46.935Z,91.70
2023-03-14T23:47:13.899Z,91.70
2023-03-14T23:49:41.714Z,91.70
2023-03-14T23:52:09.321Z,91.70
2023-03-14T23:54:36.786Z,91.80
2023-03-14T23:57:05.430Z,91.80
2023-03-14T23:59:33.763Z,91.80
